Time;durP1;ratioP1;P1;durP2;ratioP2;P2;SDS_P1;SDS_P2;PMS_P1;PMS_P2;Temp;Humidity;BMP_temperature;BMP_pressure;BME280_temperature;BME280_humidity;BME280_pressure;Samples;Min_cycle;Max_cycle;Signal;HPM_P1;HPM_P2
2021/06/06 00:01:21;;;;;;;6.80;6.07;;;;;;;13.59;78.28;99618.13;6155004;23;20071;-78
2021/06/06 00:03:50;;;;;;;8.80;6.93;;;;;;;13.59;78.24;99614.59;6180949;23;20478;-77
2021/06/06 00:06:20;;;;;;;10.05;6.75;;;;;;;13.55;78.20;99614.06;6105846;23;20411;-76
2021/06/06 00:08:45;;;;;;;6.65;6.03;;;;;;;13.54;78.28;99612.38;6155250;23;20120;-76
2021/06/06 00:11:25;;;;;;;7.97;6.72;;;;;;;13.51;78.16;99610.84;6181308;23;20467;-77
2021/06/06 00:13:52;;;;;;;6.78;6.07;;;;;;;13.46;78.45;99615.13;6154590;23;20036;-78
2021/06/06 00:16:26;;;;;;;8.85;6.95;;;;;;;13.41;78.92;99612.03;6181195;23;20064;-76
2021/06/06 00:18:52;;;;;;;7.45;6.68;;;;;;;13.41;78.59;99612.03;6129555;23;20029;-76
2021/06/06 00:21:18;;;;;;;8.73;6.85;;;;;;;13.46;78.25;99615.13;6180644;23;20116;-76
2021/06/06 00:23:44;;;;;;;15.05;11.55;;;;;;;13.46;78.73;99615.97;6155110;23;20044;-77
2021/06/06 00:26:11;;;;;;;10.50;8.30;;;;;;;13.40;78.77;99615.78;6155074;23;20097;-77
2021/06/06 00:28:37;;;;;;;8.75;7.85;;;;;;;13.37;78.68;99616.13;6105784;23;20055;-77
2021/06/06 00:31:05;;;;;;;9.80;8.70;;;;;;;13.36;78.68;99614.44;6155640;23;20364;-78
2021/06/06 00:33:31;;;;;;;9.05;8.15;;;;;;;13.36;78.73;99615.28;6182410;23;20462;-77
2021/06/06 00:35:57;;;;;;;13.38;8.65;;;;;;;13.29;79.00;99616.97;6155456;23;20021;-79
2021/06/06 00:38:25;;;;;;;14.25;11.40;;;;;;;13.23;79.42;99615.78;6130156;23;20070;-77
2021/06/06 00:40:52;;;;;;;13.50;10.57;;;;;;;13.19;79.74;99608.13;6155791;23;20016;-79
2021/06/06 00:43:18;;;;;;;11.02;9.32;;;;;;;13.21;79.45;99611.53;6182476;23;20072;-76
2021/06/06 00:45:45;;;;;;;13.20;10.38;;;;;;;13.19;79.87;99606.25;6130435;23;20017;-77
2021/06/06 00:48:14;;;;;;;14.00;11.88;;;;;;;13.17;79.71;99604.75;6154017;23;20017;-77
2021/06/06 00:50:44;;;;;;;13.98;11.20;;;;;;;13.19;79.71;99603.53;6153764;23;20048;-75
2021/06/06 00:53:15;;;;;;;12.88;10.95;;;;;;;13.15;79.95;99601.34;6180255;23;20483;-76
2021/06/06 00:55:41;;;;;;;13.05;11.63;;;;;;;13.11;80.05;99600.81;6129353;23;20025;-76
2021/06/06 00:58:10;;;;;;;14.27;11.93;;;;;;;13.14;80.44;99602.34;6129558;23;20013;-76
2021/06/06 01:00:43;;;;;;;15.80;13.27;;;;;;;13.16;79.96;99598.47;6180353;23;20024;-77
2021/06/06 01:03:10;;;;;;;15.30;12.50;;;;;;;13.22;80.01;99599.63;6105358;23;20104;-76
2021/06/06 01:06:05;;;;;;;16.75;11.93;;;;;;;13.20;80.01;99594.38;6129014;23;20052;-77
2021/06/06 01:08:34;;;;;;;13.88;11.45;;;;;;;13.16;80.11;99593.03;6099109;23;20470;-78
2021/06/06 01:11:12;;;;;;;18.10;12.10;;;;;;;13.17;80.11;99594.72;6129639;23;20021;-77
2021/06/06 01:14:07;;;;;;;15.52;12.98;;;;;;;13.20;80.17;99605.25;6129860;23;20079;-76
2021/06/06 01:16:37;;;;;;;15.60;12.68;;;;;;;13.19;80.05;99597.25;6153470;23;20087;-75
2021/06/06 01:19:15;;;;;;;19.27;11.80;;;;;;;13.23;79.80;99594.06;6154082;23;20036;-78
2021/06/06 01:21:55;;;;;;;18.50;14.07;;;;;;;13.23;80.06;99602.19;6128829;23;20080;-75
2021/06/06 01:24:28;;;;;;;14.18;12.68;;;;;;;13.23;80.26;99595.91;6153162;23;20025;-77
2021/06/06 01:27:06;;;;;;;17.80;13.63;;;;;;;13.20;80.38;99588.97;6129314;23;20021;-76
2021/06/06 01:29:59;;;;;;;19.23;14.52;;;;;;;13.26;80.37;99593.72;6153352;23;20024;-77
2021/06/06 01:32:57;;;;;;;20.00;13.07;;;;;;;13.29;80.25;99588.97;6180357;23;20052;-78
2021/06/06 01:35:28;;;;;;;16.15;12.23;;;;;;;13.27;80.66;99590.00;6114115;23;20028;-76
2021/06/06 01:38:06;;;;;;;14.93;11.95;;;;;;;13.34;79.91;99600.16;6104564;23;20440;-77
2021/06/06 01:40:35;;;;;;;16.95;12.27;;;;;;;13.36;80.01;99599.00;6153277;23;20028;-77
2021/06/06 01:43:06;;;;;;;17.85;11.23;;;;;;;13.39;79.88;99592.38;6154357;23;20083;-77
2021/06/06 01:45:36;;;;;;;15.00;10.77;;;;;;;13.45;79.86;99597.09;6130547;23;20070;-78
2021/06/06 01:48:09;;;;;;;12.50;11.27;;;;;;;13.46;79.62;99594.25;6106294;23;20060;-75
2021/06/06 01:50:44;;;;;;;17.20;11.88;;;;;;;13.52;79.62;99582.66;6131146;23;20367;-78
2021/06/06 01:53:13;;;;;;;15.55;11.70;;;;;;;13.54;79.72;99585.22;6129412;23;20463;-75
2021/06/06 01:55:51;;;;;;;13.50;11.23;;;;;;;13.54;79.87;99581.66;6128754;23;20140;-77
2021/06/06 01:58:19;;;;;;;12.65;10.48;;;;;;;13.57;79.98;99581.34;6129708;23;20025;-76
2021/06/06 02:00:56;;;;;;;11.35;9.93;;;;;;;13.57;80.04;99579.47;6105527;23;20021;-78
2021/06/06 02:03:32;;;;;;;11.18;10.07;;;;;;;13.63;79.89;99583.34;6106619;23;20112;-77
2021/06/06 02:06:04;;;;;;;12.50;9.52;;;;;;;13.66;79.65;99575.69;6153408;23;20017;-78
2021/06/06 02:08:34;;;;;;;12.05;9.65;;;;;;;13.70;79.69;99579.75;6128987;23;20479;-76
2021/06/06 02:11:19;;;;;;;13.18;9.73;;;;;;;13.77;79.56;99574.47;6129505;23;20088;-77
2021/06/06 02:13:58;;;;;;;12.05;9.77;;;;;;;13.83;79.14;99573.78;6105045;23;20111;-76
2021/06/06 02:16:34;;;;;;;17.58;9.48;;;;;;;13.94;78.66;99575.28;6129651;23;20027;-77
2021/06/06 02:19:08;;;;;;;11.70;9.40;;;;;;;14.03;78.36;99566.06;6153021;23;20434;-77
2021/06/06 02:21:39;;;;;;;11.05;9.55;;;;;;;14.10;78.62;99568.94;6152211;23;20470;-76
2021/06/06 02:24:06;;;;;;;11.02;9.63;;;;;;;14.13;78.49;99569.44;6153669;23;20028;-76
2021/06/06 02:26:48;;;;;;;10.55;9.43;;;;;;;14.23;78.23;99577.38;6128382;23;20021;-74
2021/06/06 02:29:27;;;;;;;12.75;10.07;;;;;;;14.28;78.13;99574.13;6104720;23;20093;-77
2021/06/06 02:31:58;;;;;;;10.52;9.32;;;;;;;14.36;77.70;99569.50;6153754;23;20032;-77
2021/06/06 02:34:43;;;;;;;9.77;8.30;;;;;;;14.50;77.43;99581.53;6153136;23;20052;-76
2021/06/06 02:37:25;;;;;;;10.40;8.83;;;;;;;14.61;76.99;99577.56;6129002;23;20485;-80
2021/06/06 02:39:57;;;;;;;14.43;8.77;;;;;;;14.73;76.36;99576.13;6080588;23;20024;-77
2021/06/06 02:42:26;;;;;;;11.77;8.65;;;;;;;14.85;75.85;99577.41;6153283;23;20017;-77
2021/06/06 02:44:57;;;;;;;10.52;8.73;;;;;;;14.98;75.58;99589.56;6129339;23;20032;-75
2021/06/06 02:47:30;;;;;;;12.70;8.50;;;;;;;15.08;74.94;99584.72;6152666;23;20032;-76
2021/06/06 02:50:14;;;;;;;12.52;8.55;;;;;;;15.10;74.81;99580.81;6131409;23;20025;-78
2021/06/06 02:52:44;;;;;;;10.23;8.18;;;;;;;15.26;74.07;99577.09;6153261;23;20020;-76
2021/06/06 02:55:24;;;;;;;11.13;8.05;;;;;;;15.42;74.05;99578.81;6179974;23;20021;-76
2021/06/06 02:58:02;;;;;;;10.13;7.90;;;;;;;15.58;73.13;99575.97;6154319;23;20036;-76
2021/06/06 03:00:39;;;;;;;9.95;7.95;;;;;;;15.64;72.81;99569.75;6154803;23;20029;-76
2021/06/06 03:03:20;;;;;;;13.07;8.55;;;;;;;15.75;72.26;99573.94;6131737;23;20052;-76
2021/06/06 03:05:48;;;;;;;13.05;8.98;;;;;;;15.94;72.08;99579.84;6082501;23;20089;-78
2021/06/06 03:08:17;;;;;;;9.68;8.32;;;;;;;16.06;71.65;99579.22;6155906;23;20065;-77
2021/06/06 03:10:47;;;;;;;8.75;7.85;;;;;;;16.24;70.94;99575.25;6130071;23;20021;-75
2021/06/06 03:13:29;;;;;;;11.25;8.30;;;;;;;16.46;70.75;99578.91;6105660;23;20021;-76
2021/06/06 03:15:58;;;;;;;9.07;8.00;;;;;;;16.67;69.92;99581.66;6181284;23;20047;-75
2021/06/06 03:18:31;;;;;;;9.27;7.60;;;;;;;16.69;69.58;99573.28;6130425;23;20371;-77
2021/06/06 03:21:10;;;;;;;8.90;7.18;;;;;;;16.88;68.75;99572.69;6130560;23;20021;-78
2021/06/06 03:23:38;;;;;;;8.35;6.70;;;;;;;17.11;68.09;99577.94;6130007;23;20099;-76
2021/06/06 03:26:09;;;;;;;8.18;6.35;;;;;;;17.28;67.60;99565.72;6130795;23;20016;-77
2021/06/06 03:28:42;;;;;;;6.57;5.90;;;;;;;17.41;67.10;99572.34;6108729;23;20029;-77
2021/06/06 03:31:31;;;;;;;7.15;5.68;;;;;;;17.57;66.72;99566.59;6106037;23;20017;-77
2021/06/06 03:34:02;;;;;;;8.27;6.38;;;;;;;17.76;66.58;99576.00;6130140;23;20032;-75
2021/06/06 03:36:45;;;;;;;8.40;6.63;;;;;;;17.98;65.83;99571.31;6154631;23;20028;-76
2021/06/06 03:39:27;;;;;;;8.38;5.60;;;;;;;18.24;65.59;99568.72;6156942;23;20032;-76
2021/06/06 03:41:57;;;;;;;7.40;5.63;;;;;;;18.28;64.66;99558.19;6106025;23;20051;-78
2021/06/06 03:44:24;;;;;;;9.95;5.85;;;;;;;18.49;64.20;99562.72;6180835;23;20111;-78
2021/06/06 03:46:52;;;;;;;6.40;5.72;;;;;;;18.61;63.28;99562.97;6155253;23;20032;-77
2021/06/06 03:49:18;;;;;;;6.72;5.38;;;;;;;18.83;63.20;99558.22;6154917;23;20021;-76
2021/06/06 03:51:45;;;;;;;5.43;4.55;;;;;;;19.01;61.92;99563.94;6154571;23;20108;-77
2021/06/06 03:54:15;;;;;;;7.28;4.75;;;;;;;19.24;61.04;99560.84;6154587;23;20463;-76
2021/06/06 03:56:44;;;;;;;4.43;4.03;;;;;;;19.19;61.40;99555.97;6154512;23;20035;-77
2021/06/06 03:59:13;;;;;;;7.30;4.95;;;;;;;19.37;60.94;99558.06;6155570;23;20104;-77
2021/06/06 04:01:41;;;;;;;5.78;4.65;;;;;;;19.46;60.36;99556.00;6130234;23;20032;-77
2021/06/06 04:04:07;;;;;;;5.80;4.25;;;;;;;19.19;61.45;99555.97;6154898;23;20021;-78
2021/06/06 04:06:34;;;;;;;6.22;3.92;;;;;;;18.83;62.17;99545.41;6180941;23;20017;-78
2021/06/06 04:09:03;;;;;;;5.18;4.60;;;;;;;18.70;62.00;99545.31;6129719;23;20087;-77
2021/06/06 04:11:30;;;;;;;4.90;4.40;;;;;;;18.61;62.73;99552.00;6129794;23;20692;-77
2021/06/06 04:14:05;;;;;;;5.05;4.53;;;;;;;19.34;61.03;99547.53;6154783;23;20029;-75
2021/06/06 04:16:33;;;;;;;7.15;4.47;;;;;;;19.48;60.13;99549.22;6131534;23;20200;-80
2021/06/06 04:19:02;;;;;;;4.75;4.35;;;;;;;19.80;59.54;99552.19;6083532;23;20688;-76
2021/06/06 04:21:30;;;;;;;4.82;4.22;;;;;;;20.43;58.21;99549.66;6155376;23;20069;-76
2021/06/06 04:23:57;;;;;;;5.82;4.18;;;;;;;20.75;57.76;99547.00;6183014;23;20115;-78
2021/06/06 04:26:23;;;;;;;4.93;4.13;;;;;;;21.05;56.71;99543.66;6156173;23;20045;-78
2021/06/06 04:28:52;;;;;;;8.95;4.50;;;;;;;21.35;55.49;99550.25;6155830;23;20025;-78
2021/06/06 04:31:24;;;;;;;4.47;4.07;;;;;;;21.87;54.29;99548.06;6154669;23;20025;-79
2021/06/06 04:33:50;;;;;;;4.97;3.80;;;;;;;22.07;53.41;99544.25;6154279;23;20033;-77
2021/06/06 04:36:19;;;;;;;5.60;3.60;;;;;;;22.08;53.06;99544.00;6181512;23;20096;-77
2021/06/06 04:38:46;;;;;;;4.20;3.80;;;;;;;22.09;52.97;99545.72;6154479;23;20120;-78
2021/06/06 04:41:14;;;;;;;5.07;3.05;;;;;;;22.00;53.58;99546.22;6153883;23;20024;-79
2021/06/06 04:43:42;;;;;;;5.10;3.47;;;;;;;22.29;52.98;99540.00;6105176;23;20028;-78
2021/06/06 04:46:08;;;;;;;3.15;2.85;;;;;;;22.03;53.24;99543.88;6154857;23;20017;-80
2021/06/06 04:48:39;;;;;;;4.30;3.60;;;;;;;21.88;53.60;99541.47;6129678;23;20102;-77
2021/06/06 04:51:09;;;;;;;4.82;3.58;;;;;;;21.63;54.62;99535.16;6105382;23;20355;-79
2021/06/06 04:53:40;;;;;;;5.38;3.20;;;;;;;21.66;54.47;99546.56;6129332;23;20032;-79
2021/06/06 04:56:14;;;;;;;3.97;3.42;;;;;;;21.22;55.12;99539.31;6154558;23;20047;-80
2021/06/06 04:58:42;;;;;;;5.22;3.58;;;;;;;21.32;55.40;99547.06;6131112;23;20494;-78
2021/06/06 05:01:12;;;;;;;4.60;2.95;;;;;;;21.20;55.27;99535.91;6130318;23;20021;-77
2021/06/06 05:03:39;;;;;;;4.25;3.17;;;;;;;21.08;55.51;99535.81;6129966;23;20084;-78
2021/06/06 05:06:09;;;;;;;4.53;3.70;;;;;;;21.08;56.31;99537.72;6154921;23;20016;-78
2021/06/06 05:08:35;;;;;;;6.20;3.70;;;;;;;20.93;56.24;99533.38;6129801;23;20487;-77
2021/06/06 05:11:02;;;;;;;8.02;3.90;;;;;;;20.95;56.38;99531.25;6180746;23;20151;-79
2021/06/06 05:13:28;;;;;;;4.28;3.88;;;;;;;21.08;56.22;99532.22;6180803;23;20048;-81
2021/06/06 05:15:56;;;;;;;5.25;4.50;;;;;;;21.09;55.75;99533.88;6181706;23;20029;-83
2021/06/06 05:18:26;;;;;;;6.50;4.38;;;;;;;21.23;55.19;99524.47;6132651;23;20423;-79
2021/06/06 05:20:55;;;;;;;7.22;4.70;;;;;;;21.34;55.47;99531.19;6156829;23;20040;-78
2021/06/06 05:23:25;;;;;;;8.13;4.68;;;;;;;21.43;55.77;99530.69;6156145;23;20448;-83
2021/06/06 05:25:54;;;;;;;6.22;4.28;;;;;;;21.54;55.30;99522.78;6180867;23;20021;-81
2021/06/06 05:28:26;;;;;;;4.88;4.43;;;;;;;21.34;55.38;99515.53;6181449;23;20028;-81
2021/06/06 05:30:53;;;;;;;5.55;3.65;;;;;;;21.49;55.15;99534.44;6155185;23;20096;-78
2021/06/06 05:33:19;;;;;;;4.63;3.47;;;;;;;21.41;55.07;99526.47;6180749;23;20028;-75
2021/06/06 05:35:45;;;;;;;6.28;3.70;;;;;;;21.56;55.34;99532.47;6180709;23;20064;-78
2021/06/06 05:38:13;;;;;;;4.82;3.20;;;;;;;21.84;55.21;99536.66;6154702;23;20052;-79
2021/06/06 05:40:40;;;;;;;3.70;3.30;;;;;;;21.78;53.95;99532.91;6154764;23;20523;-79
2021/06/06 05:43:06;;;;;;;4.85;3.40;;;;;;;21.59;54.65;99534.78;6154780;23;20024;-79
2021/06/06 05:45:33;;;;;;;4.55;3.03;;;;;;;21.69;54.91;99539.78;6129823;23;20029;-79
2021/06/06 05:48:00;;;;;;;5.38;3.40;;;;;;;21.90;54.74;99536.59;6154374;23;20021;-79
2021/06/06 05:50:28;;;;;;;6.95;3.53;;;;;;;21.89;54.06;99534.91;6181158;23;20048;-79
2021/06/06 05:53:12;;;;;;;4.65;3.15;;;;;;;21.91;53.64;99538.28;6113296;23;20025;-79
2021/06/06 05:55:38;;;;;;;3.53;3.05;;;;;;;21.96;53.64;99539.50;6181704;23;20105;-78
2021/06/06 05:58:05;;;;;;;4.55;3.30;;;;;;;21.91;53.87;99541.03;6180139;23;20044;-79
2021/06/06 06:00:35;;;;;;;5.13;3.85;;;;;;;21.86;54.29;99535.34;6180652;23;20021;-76
2021/06/06 06:03:01;;;;;;;4.28;3.95;;;;;;;22.53;52.95;99526.38;6155793;23;20021;-81
2021/06/06 06:05:27;;;;;;;4.63;3.47;;;;;;;23.12;51.65;99532.97;6180394;23;20426;-79
2021/06/06 06:07:53;;;;;;;6.20;3.58;;;;;;;23.41;50.86;99530.38;6180686;23;20095;-80
2021/06/06 06:10:26;;;;;;;3.50;3.20;;;;;;;23.31;50.77;99530.94;6154005;23;20456;-80
2021/06/06 06:12:55;;;;;;;6.18;3.22;;;;;;;23.71;49.66;99528.38;6153764;23;20017;-80
2021/06/06 06:15:21;;;;;;;8.02;3.50;;;;;;;24.25;48.71;99540.09;6105944;23;20120;-80
2021/06/06 06:17:47;;;;;;;3.97;3.30;;;;;;;24.60;47.92;99539.16;6180702;23;20021;-78
2021/06/06 06:20:18;;;;;;;5.07;3.55;;;;;;;25.08;47.11;99540.63;6180507;23;20474;-80
2021/06/06 06:22:44;;;;;;;5.13;3.00;;;;;;;25.94;45.60;99546.84;6150694;23;20049;-77
2021/06/06 06:25:12;;;;;;;3.78;2.72;;;;;;;25.89;45.49;99540.41;6176403;23;20036;-78
2021/06/06 06:27:38;;;;;;;3.67;2.90;;;;;;;25.55;46.10;99534.00;6184403;23;20424;-80
2021/06/06 06:30:14;;;;;;;3.40;3.10;;;;;;;25.44;46.31;99535.75;6160008;23;20103;-77
2021/06/06 06:32:40;;;;;;;3.50;3.08;;;;;;;25.37;46.52;99535.09;6182090;23;20021;-81
2021/06/06 06:35:08;;;;;;;5.80;3.47;;;;;;;25.77;45.81;99531.28;6158351;23;20031;-81
2021/06/06 06:37:34;;;;;;;7.38;3.70;;;;;;;25.73;46.01;99539.28;6133803;23;20017;-82
2021/06/06 06:40:00;;;;;;;6.15;2.80;;;;;;;25.36;46.47;99541.72;6158982;23;20039;-83
2021/06/06 06:42:27;;;;;;;5.63;3.05;;;;;;;25.49;46.56;99530.31;6187534;23;20025;-82
2021/06/06 06:44:53;;;;;;;3.78;2.60;;;;;;;25.53;46.12;99531.50;6160714;23;20021;-79
2021/06/06 06:47:19;;;;;;;4.20;2.60;;;;;;;25.35;46.27;99529.81;6133805;23;20039;-79
2021/06/06 06:49:45;;;;;;;8.15;3.10;;;;;;;25.39;46.19;99530.16;6159972;23;20051;-79
2021/06/06 06:52:12;;;;;;;3.35;2.75;;;;;;;25.85;44.90;99522.59;6156642;23;20506;-81
2021/06/06 06:54:40;;;;;;;7.55;3.03;;;;;;;26.23;45.20;99527.28;6158779;23;20017;-79
2021/06/06 06:57:06;;;;;;;5.10;2.60;;;;;;;26.38;44.61;99527.47;6158239;23;20067;-82
2021/06/06 06:59:32;;;;;;;4.90;2.38;;;;;;;25.82;44.76;99523.94;6158376;23;20025;-80
2021/06/06 07:02:03;;;;;;;3.63;2.50;;;;;;;25.50;45.93;99534.75;6157016;23;20067;-81
2021/06/06 07:04:29;;;;;;;2.72;2.10;;;;;;;25.63;45.35;99537.19;6156053;23;20087;-75
2021/06/06 07:06:56;;;;;;;3.45;2.30;;;;;;;25.99;45.09;99540.53;6182011;23;20079;-81
2021/06/06 07:09:25;;;;;;;4.15;2.45;;;;;;;25.33;46.09;99528.38;6130294;23;20029;-80
2021/06/06 07:11:52;;;;;;;5.13;2.45;;;;;;;26.09;44.84;99518.50;6182144;23;20043;-79
2021/06/06 07:14:18;;;;;;;6.60;2.63;;;;;;;26.43;44.29;99529.47;6109427;23;20428;-83
2021/06/06 07:16:44;;;;;;;2.72;2.45;;;;;;;26.49;44.18;99517.38;6155726;23;20017;-79
2021/06/06 07:19:10;;;;;;;9.48;2.65;;;;;;;26.66;43.25;99515.38;6132995;23;20584;-83
2021/06/06 07:21:41;;;;;;;7.90;2.65;;;;;;;26.48;44.11;99515.72;6131713;23;20024;-81
2021/06/06 07:24:07;;;;;;;2.47;2.25;;;;;;;26.59;43.58;99517.50;6158068;23;20029;-80
2021/06/06 07:26:40;;;;;;;2.92;2.08;;;;;;;27.15;43.44;99507.00;6187413;23;20574;-79
2021/06/06 07:29:11;;;;;;;2.42;2.17;;;;;;;27.07;42.27;99515.78;6187435;23;20017;-81
2021/06/06 07:31:39;;;;;;;3.35;1.70;;;;;;;27.34;42.46;99507.44;6115294;23;20017;-80
2021/06/06 07:34:05;;;;;;;6.10;2.42;;;;;;;27.15;42.90;99509.78;6111787;23;20017;-79
2021/06/06 07:36:31;;;;;;;3.75;2.30;;;;;;;27.29;41.90;99512.97;6185787;23;20983;-80
2021/06/06 07:38:57;;;;;;;2.28;1.73;;;;;;;26.99;42.30;99510.72;6182584;23;20560;-80
2021/06/06 07:41:23;;;;;;;3.38;1.92;;;;;;;26.87;42.74;99502.53;6154466;23;20423;-79
2021/06/06 07:43:49;;;;;;;4.53;2.10;;;;;;;27.08;42.66;99506.38;6180602;23;20530;-80
2021/06/06 07:46:17;;;;;;;9.00;2.92;;;;;;;27.25;42.04;99502.66;6182179;23;20052;-79
2021/06/06 07:48:44;;;;;;;3.45;3.00;;;;;;;28.54;39.83;99526.31;6112374;23;20075;-84
2021/06/06 07:51:11;;;;;;;3.30;2.50;;;;;;;29.82;37.89;99511.72;6148884;23;20021;-84
2021/06/06 07:53:41;;;;;;;4.55;1.80;;;;;;;29.68;37.75;99509.50;6123634;23;20084;-87
2021/06/06 07:56:07;;;;;;;2.90;2.67;;;;;;;29.54;37.78;99505.59;6145036;23;20065;-84
2021/06/06 07:58:38;;;;;;;6.60;2.90;;;;;;;28.78;38.86;99492.44;6119155;23;20048;-83
2021/06/06 08:01:08;;;;;;;8.90;2.70;;;;;;;29.86;37.73;99501.69;6143279;23;20017;-85
2021/06/06 08:03:38;;;;;;;4.95;2.88;;;;;;;30.96;36.00;99490.34;6164474;23;20025;-83
2021/06/06 08:06:06;;;;;;;3.03;2.28;;;;;;;30.75;35.79;99491.59;6163952;23;20063;-84
2021/06/06 08:08:33;;;;;;;1.73;1.30;;;;;;;30.78;34.78;99496.63;6119938;23;20021;-85
2021/06/06 08:11:03;;;;;;;3.92;1.80;;;;;;;29.19;37.39;99498.94;6175079;23;20016;-82
2021/06/06 08:13:29;;;;;;;5.20;2.58;;;;;;;29.45;36.73;99502.53;6151259;23;20031;-85
2021/06/06 08:15:57;;;;;;;5.53;3.40;;;;;;;30.38;35.99;99498.47;6145946;23;20044;-85
2021/06/06 08:18:32;;;;;;;3.10;2.90;;;;;;;30.26;35.96;99507.16;6144970;23;20080;-83
2021/06/06 08:21:03;;;;;;;4.60;1.50;;;;;;;28.97;38.22;99496.38;6145617;23;20016;-83
2021/06/06 08:23:36;;;;;;;6.95;2.42;;;;;;;29.08;37.82;99498.09;6144425;23;20029;-84
2021/06/06 08:26:04;;;;;;;2.88;2.67;;;;;;;29.52;36.79;99497.53;6171918;23;20032;-86
2021/06/06 08:28:31;;;;;;;5.22;3.22;;;;;;;31.44;34.03;99486.94;6148687;23;20068;-84
2021/06/06 08:31:01;;;;;;;2.78;1.70;;;;;;;30.23;36.25;99484.59;6195524;23;20052;-84
2021/06/06 08:33:30;;;;;;;5.45;3.97;;;;;;;31.47;35.09;99486.34;6172095;23;20068;-87
2021/06/06 08:36:00;;;;;;;6.90;3.55;;;;;;;33.13;32.13;99488.59;6164338;23;20495;-84
2021/06/06 08:38:28;;;;;;;5.10;3.67;;;;;;;33.60;31.77;99481.06;6194526;23;20518;-83
2021/06/06 08:41:02;;;;;;;3.45;3.08;;;;;;;34.47;30.16;99493.41;6169782;23;20021;-83
2021/06/06 08:44:13;;;;;;;3.58;3.28;;;;;;;34.82;30.17;99477.78;6144789;23;20041;-83
2021/06/06 08:46:52;;;;;;;4.38;2.30;;;;;;;33.89;31.16;99482.78;6162820;23;20021;-84
2021/06/06 08:49:19;;;;;;;5.97;2.20;;;;;;;32.77;32.94;99475.09;6123153;23;20462;-86
2021/06/06 08:51:52;;;;;;;6.85;2.13;;;;;;;31.88;33.54;99470.03;6129976;23;20012;-86
2021/06/06 08:54:41;;;;;;;7.75;2.58;;;;;;;31.31;34.09;99470.88;6150876;23;20021;-85
2021/06/06 08:57:26;;;;;;;2.65;1.70;;;;;;;30.04;36.07;99460.09;6145863;23;20048;-85
2021/06/06 08:59:54;;;;;;;6.90;2.10;;;;;;;29.45;36.55;99469.13;6149077;23;20021;-84
2021/06/06 09:02:35;;;;;;;3.65;1.58;;;;;;;28.68;37.66;99464.59;6177826;23;20029;-87
2021/06/06 09:05:06;;;;;;;4.82;3.30;;;;;;;29.62;37.09;99473.56;6127108;23;20025;-86
2021/06/06 09:07:40;;;;;;;5.63;2.45;;;;;;;31.42;34.30;99450.09;6140129;23;20047;-86
2021/06/06 09:10:18;;;;;;;6.50;1.77;;;;;;;30.43;35.18;99451.03;6130192;23;20035;-87
2021/06/06 09:12:45;;;;;;;6.75;2.00;;;;;;;29.45;36.86;99452.41;6159423;23;20040;-87
2021/06/06 09:15:17;;;;;;;3.45;2.03;;;;;;;28.98;37.54;99447.97;6162209;23;20044;-85
2021/06/06 09:18:00;;;;;;;2.00;1.50;;;;;;;28.78;37.66;99445.16;6138774;23;20021;-88
2021/06/06 09:20:37;;;;;;;4.82;1.83;;;;;;;28.80;37.70;99445.69;6114245;23;20457;-84
2021/06/06 09:23:17;;;;;;;2.22;1.63;;;;;;;28.15;39.47;99438.81;6114261;23;20025;-85
2021/06/06 09:26:06;;;;;;;3.25;2.90;;;;;;;30.49;35.82;99437.88;6140615;23;20038;-86
2021/06/06 09:28:45;;;;;;;4.35;3.25;;;;;;;32.41;32.58;99442.00;6141445;23;20090;-86
2021/06/06 09:31:21;;;;;;;5.20;1.80;;;;;;;31.26;34.13;99432.59;6118438;23;20040;-86
2021/06/06 09:37:13;;;;;;;3.63;1.98;;;;;;;29.78;35.97;99431.47;6195313;23;20088;-87
2021/06/06 09:42:38;;;;;;;3.38;2.65;;;;;;;30.49;35.47;99426.72;6130377;23;20024;-86
2021/06/06 09:45:23;;;;;;;3.17;2.20;;;;;;;30.38;35.76;99414.78;6167844;23;20024;-88
2021/06/06 09:48:39;;;;;;;2.78;1.90;;;;;;;30.02;35.94;99412.16;6176673;23;20044;-83
2021/06/06 09:51:21;;;;;;;3.15;2.05;;;;;;;29.99;35.09;99409.94;6141781;23;20087;-84
2021/06/06 09:53:51;;;;;;;4.60;3.08;;;;;;;31.65;33.70;99406.53;6144551;23;20021;-85
2021/06/06 09:56:23;;;;;;;3.20;3.00;;;;;;;33.19;31.87;99403.28;6146573;23;20085;-84
2021/06/06 09:58:51;;;;;;;3.35;2.83;;;;;;;33.19;31.25;99408.88;6166057;23;20025;-84
2021/06/06 10:01:23;;;;;;;3.50;1.70;;;;;;;32.31;32.12;99399.31;6117746;23;20024;-83
2021/06/06 10:04:21;;;;;;;2.92;1.40;;;;;;;30.10;35.61;99391.22;6145206;23;20084;-85
2021/06/06 10:06:50;;;;;;;4.88;2.47;;;;;;;30.37;35.08;99395.56;6120750;23;20021;-84
2021/06/06 10:09:20;;;;;;;3.92;3.08;;;;;;;31.19;33.95;99390.19;6113989;23;20021;-82
2021/06/06 10:12:24;;;;;;;2.72;2.55;;;;;;;32.70;32.01;99385.03;6187406;23;20428;-83
2021/06/06 10:14:59;;;;;;;3.42;3.17;;;;;;;34.54;29.61;99387.97;6143646;23;20044;-86
2021/06/06 10:17:45;;;;;;;2.78;2.13;;;;;;;34.31;29.79;99378.66;6099946;23;20013;-87
2021/06/06 10:20:36;;;;;;;4.18;1.73;;;;;;;32.48;32.09;99370.84;6200379;23;20021;-88
2021/06/06 10:23:16;;;;;;;2.35;1.50;;;;;;;31.55;33.60;99370.31;6153883;23;20024;-87
2021/06/06 10:25:51;;;;;;;4.72;1.50;;;;;;;30.09;35.39;99363.59;6147879;23;20040;-87
2021/06/06 10:31:39;;;;;;;4.07;1.70;;;;;;;28.95;37.15;99364.16;6145474;23;20052;-86
2021/06/06 10:34:32;;;;;;;2.05;1.70;;;;;;;28.29;37.78;99368.50;6121584;23;20022;-87
2021/06/06 10:37:04;;;;;;;3.65;2.00;;;;;;;27.86;38.55;99376.19;6121598;23;20151;-86
2021/06/06 10:39:40;;;;;;;4.28;1.90;;;;;;;27.76;39.10;99370.56;6154843;23;20001;-85
2021/06/06 10:42:12;;;;;;;5.35;1.88;;;;;;;27.33;40.42;99371.69;6191429;23;20073;-86
2021/06/06 10:44:57;;;;;;;4.72;1.98;;;;;;;26.93;40.70;99367.50;6149685;23;20036;-86
2021/06/06 10:47:42;;;;;;;1.95;1.75;;;;;;;26.78;41.19;99356.28;6172287;23;20101;-85
2021/06/06 10:50:34;;;;;;;2.10;1.90;;;;;;;26.57;41.34;99353.31;6171788;23;20025;-85
2021/06/06 10:53:17;;;;;;;3.88;2.35;;;;;;;26.72;41.37;99349.00;6145058;23;20028;-85
2021/06/06 10:56:12;;;;;;;4.38;2.17;;;;;;;26.86;41.50;99344.69;6171930;23;20036;-86
2021/06/06 10:58:59;;;;;;;4.45;1.85;;;;;;;26.82;41.45;99335.22;6145470;23;20024;-86
2021/06/06 11:01:52;;;;;;;4.47;1.67;;;;;;;26.78;41.62;99345.19;6113489;23;20045;-86
2021/06/06 11:04:28;;;;;;;4.30;2.08;;;;;;;26.35;42.75;99349.75;6114387;23;20036;-87
2021/06/06 11:07:30;;;;;;;3.92;2.25;;;;;;;25.88;43.50;99340.09;6142013;23;20017;-87
2021/06/06 11:10:29;;;;;;;6.55;2.28;;;;;;;25.66;44.87;99342.84;6192150;23;20019;-86
2021/06/06 11:13:31;;;;;;;3.75;2.28;;;;;;;25.38;45.29;99351.34;6185001;23;20079;-84
2021/06/06 11:16:31;;;;;;;2.70;1.98;;;;;;;24.98;46.05;99346.84;6160975;23;20044;-86
2021/06/06 11:19:02;;;;;;;5.63;2.30;;;;;;;24.88;46.82;99346.69;6155613;23;21018;-86
2021/06/06 11:21:37;;;;;;;5.45;2.13;;;;;;;24.70;46.84;99345.84;6173438;23;20073;-85
2021/06/06 11:24:28;;;;;;;3.55;2.75;;;;;;;24.65;47.34;99343.00;6151001;23;20041;-84
2021/06/06 11:27:15;;;;;;;3.22;2.08;;;;;;;24.50;47.34;99345.53;6130750;23;20025;-85
2021/06/06 11:30:06;;;;;;;3.05;2.53;;;;;;;24.24;47.71;99350.56;6153629;23;20036;-86
2021/06/06 11:32:56;;;;;;;20.00;5.00;;;;;;;24.10;48.24;99363.00;6100160;23;20025;-85
2021/06/06 11:35:24;;;;;;;3.75;2.50;;;;;;;23.78;49.24;99377.25;6151828;23;20092;-85
2021/06/06 11:37:56;;;;;;;6.55;1.95;;;;;;;23.20;52.64;99374.56;6151159;23;20583;-84
2021/06/06 11:40:37;;;;;;;4.05;2.05;;;;;;;23.01;52.09;99363.66;6150892;23;20033;-85
2021/06/06 11:43:42;;;;;;;8.77;2.20;;;;;;;23.23;52.70;99368.56;6175036;23;20041;-87
2021/06/06 11:46:21;;;;;;;6.88;3.35;;;;;;;23.88;50.70;99356.44;6137871;23;20025;-87
2021/06/06 11:48:57;;;;;;;2.95;2.65;;;;;;;24.58;51.88;99364.44;6104879;23;20021;-87
2021/06/06 11:51:46;;;;;;;7.07;2.30;;;;;;;25.64;48.03;99358.06;6151320;23;20077;-87
2021/06/06 11:54:50;;;;;;;2.92;2.70;;;;;;;25.49;47.48;99358.69;6161178;23;20021;-85
2021/06/06 11:57:32;;;;;;;2.30;1.92;;;;;;;25.51;47.02;99350.97;6158542;23;20113;-88
2021/06/06 12:00:08;;;;;;;3.45;1.90;;;;;;;25.17;47.17;99358.50;6157759;23;20064;-86
2021/06/06 12:02:43;;;;;;;2.80;2.17;;;;;;;25.42;46.17;99355.28;6157228;23;20082;-87
2021/06/06 12:05:49;;;;;;;3.72;2.33;;;;;;;25.66;46.51;99353.09;6173260;23;20320;-86
2021/06/06 12:08:17;;;;;;;3.60;2.47;;;;;;;25.61;45.75;99353.03;6121783;23;20022;-85
2021/06/06 12:14:19;;;;;;;5.28;2.15;;;;;;;26.57;43.79;99363.56;6165920;23;20025;-85